createdAt,value
2019-06-15T00:00:01.968Z,0
2019-06-15T00:05:03.064Z,0
2019-06-15T00:10:01.921Z,0
2019-06-15T00:15:02.710Z,0
2019-06-15T00:20:03.156Z,0
2019-06-15T00:25:02.667Z,0
2019-06-15T00:30:03.116Z,0
2019-06-15T00:35:02.639Z,0
2019-06-15T00:40:03.341Z,0
2019-06-15T00:45:02.999Z,0
2019-06-15T00:50:02.440Z,0
2019-06-15T00:55:02.985Z,0
2019-06-15T01:00:02.432Z,0
2019-06-15T01:05:02.950Z,0
2019-06-15T01:10:03.489Z,0
2019-06-15T01:15:03.007Z,0
2019-06-15T01:20:02.522Z,0
2019-06-15T01:25:05.888Z,0
2019-06-15T01:30:02.588Z,0
2019-06-15T01:35:03.137Z,0
2019-06-15T01:40:02.591Z,0
2019-06-15T01:45:03.104Z,0
2019-06-15T01:50:02.816Z,0
2019-06-15T01:55:02.476Z,0
2019-06-15T02:00:03.177Z,0
2019-06-15T02:05:02.734Z,0
2019-06-15T02:10:03.190Z,0
2019-06-15T02:15:02.755Z,0
2019-06-15T02:20:03.499Z,0
2019-06-15T02:25:03.069Z,0
2019-06-15T02:30:02.519Z,0
2019-06-15T02:35:02.994Z,0
2019-06-15T02:40:02.457Z,0
2019-06-15T02:45:02.938Z,0
2019-06-15T02:50:03.433Z,2
2019-06-15T02:55:02.957Z,4
2019-06-15T03:00:01.585Z,7
2019-06-15T03:05:03.187Z,7
2019-06-15T03:10:01.955Z,6
2019-06-15T03:15:03.492Z,11
2019-06-15T03:20:03.018Z,21
2019-06-15T03:25:02.475Z,43
2019-06-15T03:30:02.991Z,56
2019-06-15T03:35:02.422Z,65
2019-06-15T03:40:02.890Z,207
2019-06-15T03:45:03.394Z,347
2019-06-15T03:50:02.907Z,275
2019-06-15T03:55:03.362Z,294
2019-06-15T04:00:02.886Z,300
2019-06-15T04:05:03.448Z,252
2019-06-15T04:10:02.973Z,307
2019-06-15T04:15:02.462Z,286
2019-06-15T04:20:03.005Z,291
2019-06-15T04:25:02.644Z,100
2019-06-15T04:30:02.476Z,72
2019-06-15T04:35:03.012Z,235
2019-06-15T04:40:02.562Z,314
2019-06-15T04:45:03.086Z,202
2019-06-15T04:50:02.561Z,505
2019-06-15T04:55:03.144Z,362
2019-06-15T05:00:02.584Z,406
2019-06-15T05:05:03.041Z,399
2019-06-15T05:10:02.485Z,324
2019-06-15T05:15:02.970Z,407
2019-06-15T05:20:02.491Z,264
2019-06-15T05:25:03.044Z,258
2019-06-15T05:30:02.479Z,345
2019-06-15T05:35:02.947Z,533
2019-06-15T05:40:03.446Z,604
2019-06-15T05:45:02.955Z,523
2019-06-15T05:50:02.616Z,527
2019-06-15T05:55:03.133Z,651
2019-06-15T06:00:03.025Z,996
2019-06-15T06:05:02.603Z,1000
2019-06-15T06:10:03.065Z,1000
2019-06-15T06:15:02.506Z,1000
2019-06-15T06:20:03.006Z,2000
2019-06-15T06:25:02.514Z,1000
2019-06-15T06:30:03.454Z,1000
2019-06-15T06:35:03.095Z,1000
2019-06-15T06:40:02.615Z,1000
2019-06-15T06:45:03.170Z,1000
2019-06-15T06:50:02.708Z,1000
2019-06-15T06:55:03.229Z,1000
2019-06-15T07:00:02.748Z,1000
2019-06-15T07:05:03.290Z,2000
2019-06-15T07:10:02.749Z,3000
2019-06-15T07:15:04.857Z,3000
2019-06-15T07:20:02.516Z,4000
2019-06-15T07:25:03.013Z,5000
2019-06-15T07:30:02.569Z,7000
2019-06-15T07:35:03.097Z,10000
2019-06-15T07:40:02.600Z,31000
2019-06-15T07:45:03.160Z,15000
2019-06-15T07:50:02.674Z,7000
2019-06-15T07:55:03.127Z,7000
2019-06-15T08:00:02.655Z,8000
2019-06-15T08:05:03.148Z,16000
2019-06-15T08:10:02.628Z,6000
2019-06-15T08:15:03.147Z,6000
2019-06-15T08:20:02.721Z,4000
2019-06-15T08:25:03.224Z,4000
2019-06-15T08:30:02.114Z,3000
2019-06-15T08:35:01.874Z,4000
2019-06-15T08:40:03.432Z,5000
2019-06-15T08:45:03.051Z,4000
2019-06-15T08:50:02.588Z,3000
2019-06-15T08:55:03.137Z,9000
2019-06-15T09:00:03.173Z,9000
2019-06-15T09:05:02.800Z,4000
2019-06-15T09:10:03.304Z,3000
2019-06-15T09:15:02.969Z,8000
2019-06-15T09:20:02.479Z,14000
2019-06-15T09:25:02.989Z,8000
2019-06-15T09:30:02.565Z,9000
2019-06-15T09:35:03.069Z,8000
2019-06-15T09:40:02.624Z,13000
2019-06-15T09:45:03.152Z,35000
2019-06-15T09:50:02.686Z,10000
2019-06-15T09:55:03.187Z,32000
2019-06-15T10:00:03.051Z,12000
2019-06-15T10:05:02.568Z,11000
2019-06-15T10:10:03.099Z,12000
2019-06-15T10:15:02.644Z,37000
2019-06-15T10:20:03.162Z,21000
2019-06-15T10:25:02.788Z,45000
2019-06-15T10:30:03.327Z,15000
2019-06-15T10:35:02.824Z,30000
2019-06-15T10:40:03.402Z,47000
2019-06-15T10:45:02.909Z,20000
2019-06-15T10:50:03.366Z,17000
2019-06-15T10:55:02.877Z,41000
2019-06-15T11:00:03.327Z,45000
2019-06-15T11:05:02.894Z,34000
2019-06-15T11:10:03.424Z,34000
2019-06-15T11:15:02.932Z,18000
2019-06-15T11:20:03.490Z,26000
2019-06-15T11:25:03.074Z,22000
2019-06-15T11:30:13.112Z,19000
2019-06-15T11:35:02.884Z,35000
2019-06-15T11:40:03.396Z,42000
2019-06-15T11:45:02.890Z,40000
2019-06-15T11:50:03.336Z,39000
2019-06-15T11:55:02.855Z,50000
2019-06-15T12:00:03.406Z,26000
2019-06-15T12:05:02.931Z,33000
2019-06-15T12:10:03.528Z,47000
2019-06-15T12:15:03.142Z,17000
2019-06-15T12:20:02.760Z,25000
2019-06-15T12:25:03.373Z,16000
2019-06-15T12:30:02.863Z,20000
2019-06-15T12:35:03.363Z,11000
2019-06-15T12:40:02.890Z,15000
2019-06-15T12:45:03.418Z,17000
2019-06-15T12:50:02.958Z,19000
2019-06-15T12:55:02.438Z,34000
2019-06-15T13:00:02.989Z,33000
2019-06-15T13:05:02.511Z,33000
2019-06-15T13:10:03.088Z,32000
2019-06-15T13:15:02.601Z,8000
2019-06-15T13:20:03.171Z,30000
2019-06-15T13:25:02.870Z,18000
2019-06-15T13:30:03.390Z,33000
2019-06-15T13:35:02.855Z,19000
2019-06-15T13:40:03.510Z,28000
2019-06-15T13:45:03.182Z,29000
2019-06-15T13:50:01.892Z,7000
2019-06-15T13:55:02.544Z,31000
2019-06-15T14:00:03.124Z,10000
2019-06-15T14:05:02.591Z,31000
2019-06-15T14:10:03.141Z,10000
2019-06-15T14:15:02.625Z,10000
2019-06-15T14:20:03.231Z,8000
2019-06-15T14:25:02.724Z,30000
2019-06-15T14:30:03.359Z,26000
2019-06-15T14:35:02.890Z,22000
2019-06-15T14:40:03.522Z,22000
2019-06-15T14:45:03.053Z,24000
2019-06-15T14:50:02.589Z,10000
2019-06-15T14:55:03.015Z,25000
2019-06-15T15:00:05.840Z,6000
2019-06-15T15:05:02.982Z,5000
2019-06-15T15:10:02.446Z,22000
2019-06-15T15:15:02.973Z,19000
2019-06-15T15:20:04.020Z,18000
2019-06-15T15:25:02.613Z,5000
2019-06-15T15:30:03.148Z,8000
2019-06-15T15:35:02.677Z,18000
2019-06-15T15:40:03.121Z,6000
2019-06-15T15:45:02.642Z,5000
2019-06-15T15:50:03.401Z,15000
2019-06-15T15:55:03.176Z,6000
2019-06-15T16:00:07.215Z,14000
2019-06-15T16:05:02.969Z,14000
2019-06-15T16:10:02.417Z,14000
2019-06-15T16:15:02.845Z,13000
2019-06-15T16:20:03.410Z,13000
2019-06-15T16:25:02.896Z,13000
2019-06-15T16:30:06.326Z,12000
2019-06-15T16:35:03.401Z,11000
2019-06-15T16:40:02.091Z,11000
2019-06-15T16:45:02.914Z,10000
2019-06-15T16:50:03.513Z,10000
2019-06-15T16:55:02.976Z,10000
2019-06-15T17:00:02.549Z,9000
2019-06-15T17:05:03.058Z,9000
2019-06-15T17:10:02.523Z,8000
2019-06-15T17:15:03.161Z,8000
2019-06-15T17:20:02.661Z,8000
2019-06-15T17:25:05.943Z,8000
2019-06-15T17:30:02.618Z,7000
2019-06-15T17:35:03.162Z,4000
2019-06-15T17:40:02.666Z,2000
2019-06-15T17:45:03.134Z,1000
2019-06-15T17:50:02.587Z,1000
2019-06-15T17:55:03.086Z,2000
2019-06-15T18:00:02.709Z,3000
2019-06-15T18:05:03.373Z,5000
2019-06-15T18:10:02.871Z,3000
2019-06-15T18:15:03.456Z,2000
2019-06-15T18:20:02.939Z,1000
2019-06-15T18:25:03.384Z,1000
2019-06-15T18:30:02.822Z,2000
2019-06-15T18:35:06.015Z,1000
2019-06-15T18:40:02.652Z,1000
2019-06-15T18:45:03.126Z,1000
2019-06-15T18:50:02.657Z,860
2019-06-15T18:55:03.212Z,718
2019-06-15T19:00:02.689Z,697
2019-06-15T19:05:03.264Z,654
2019-06-15T19:10:02.764Z,574
2019-06-15T19:15:03.309Z,443
2019-06-15T19:20:02.859Z,363
2019-06-15T19:25:03.372Z,317
2019-06-15T19:30:02.885Z,209
2019-06-15T19:35:03.433Z,151
2019-06-15T19:40:02.117Z,70
2019-06-15T19:45:02.639Z,54
2019-06-15T19:50:03.129Z,59
2019-06-15T19:55:02.561Z,89
2019-06-15T20:00:03.059Z,59
2019-06-15T20:05:03.871Z,48
2019-06-15T20:10:02.595Z,43
2019-06-15T20:15:03.199Z,31
2019-06-15T20:20:02.901Z,20
2019-06-15T20:25:03.423Z,11
2019-06-15T20:30:02.878Z,6
2019-06-15T20:35:16.201Z,3
2019-06-15T20:40:03.078Z,2
2019-06-15T20:45:02.680Z,1
2019-06-15T20:50:03.275Z,0
2019-06-15T20:55:02.832Z,0
2019-06-15T21:00:06.049Z,0
2019-06-15T21:05:02.847Z,0
2019-06-15T21:10:03.381Z,0
2019-06-15T21:15:02.876Z,0
2019-06-15T21:20:03.461Z,0
2019-06-15T21:25:03.083Z,0
2019-06-15T21:30:02.562Z,0
2019-06-15T21:35:03.113Z,0
2019-06-15T21:40:02.628Z,0
2019-06-15T21:45:03.186Z,0
2019-06-15T21:50:02.827Z,0
2019-06-15T21:55:03.296Z,0
2019-06-15T22:00:03.216Z,0
2019-06-15T22:05:02.798Z,0
2019-06-15T22:10:03.362Z,0
2019-06-15T22:15:02.852Z,0
2019-06-15T22:20:03.317Z,0
2019-06-15T22:25:03.005Z,0
2019-06-15T22:30:02.779Z,0
2019-06-15T22:35:02.495Z,0
2019-06-15T22:40:02.312Z,0
2019-06-15T22:45:03.075Z,0
2019-06-15T22:50:02.598Z,0
2019-06-15T22:55:05.906Z,0
2019-06-15T23:00:08.088Z,0
2019-06-15T23:05:03.089Z,0
2019-06-15T23:10:02.546Z,0
2019-06-15T23:15:03.021Z,0
2019-06-15T23:20:02.481Z,0
2019-06-15T23:25:02.994Z,0
2019-06-15T23:30:02.443Z,0
2019-06-15T23:35:02.923Z,0
2019-06-15T23:40:03.375Z,0
2019-06-15T23:45:02.823Z,0
2019-06-15T23:50:03.264Z,0
2019-06-15T23:55:02.706Z,0
